createdAt,value
2022-11-24T00:00:03.452Z,940.74
2022-11-24T00:00:14.464Z,940.73
2022-11-24T00:00:25.470Z,940.74
2022-11-24T00:00:36.478Z,940.74
2022-11-24T00:00:47.484Z,940.74
2022-11-24T00:00:59.400Z,940.73
2022-11-24T00:01:10.416Z,940.74
2022-11-24T00:01:21.423Z,940.75
2022-11-24T00:01:32.429Z,940.75
2022-11-24T00:01:43.463Z,940.75
2022-11-24T00:01:55.510Z,940.75
2022-11-24T00:02:06.543Z,940.76
2022-11-24T00:02:18.632Z,940.76
2022-11-24T00:02:30.636Z,940.75
2022-11-24T00:02:41.643Z,940.77
2022-11-24T00:02:53.526Z,940.77
2022-11-24T00:03:04.537Z,940.77
2022-11-24T00:03:16.635Z,940.78
2022-11-24T00:03:28.465Z,940.78
2022-11-24T00:03:39.585Z,940.77
2022-11-24T00:03:51.432Z,940.77
2022-11-24T00:04:02.435Z,940.78
2022-11-24T00:04:13.443Z,940.77
2022-11-24T00:04:24.444Z,940.77
2022-11-24T00:04:35.846Z,940.78
2022-11-24T00:04:47.406Z,940.78
2022-11-24T00:04:58.411Z,940.78
2022-11-24T00:05:10.410Z,940.78
2022-11-24T00:05:22.422Z,940.78
2022-11-24T00:05:33.432Z,940.78
2022-11-24T00:05:44.436Z,940.78
2022-11-24T00:05:55.460Z,940.78
2022-11-24T00:06:06.445Z,940.79
2022-11-24T00:06:18.449Z,940.78
2022-11-24T00:06:30.454Z,940.79
2022-11-24T00:06:41.460Z,940.79
2022-11-24T00:06:53.463Z,940.79
2022-11-24T00:07:04.467Z,940.78
2022-11-24T00:07:15.572Z,940.79
2022-11-24T00:07:27.480Z,940.79
2022-11-24T00:07:38.549Z,940.80
2022-11-24T00:07:50.538Z,940.80
2022-11-24T00:08:02.414Z,940.79
2022-11-24T00:08:13.435Z,940.79
2022-11-24T00:08:24.443Z,940.79
2022-11-24T00:08:35.453Z,940.79
2022-11-24T00:08:46.469Z,940.79
2022-11-24T00:08:57.468Z,940.77
2022-11-24T00:09:08.482Z,940.78
2022-11-24T00:09:20.391Z,940.78
2022-11-24T00:09:31.397Z,940.78
2022-11-24T00:09:43.406Z,940.77
2022-11-24T00:09:54.414Z,940.78
2022-11-24T00:10:05.413Z,940.78
2022-11-24T00:10:16.422Z,940.79
2022-11-24T00:10:27.418Z,940.79
2022-11-24T00:10:39.429Z,940.79
2022-11-24T00:10:50.427Z,940.79
2022-11-24T00:11:01.450Z,940.79
2022-11-24T00:11:12.460Z,940.79
2022-11-24T00:11:23.468Z,940.79
2022-11-24T00:11:34.479Z,940.79
2022-11-24T00:11:45.521Z,940.79
2022-11-24T00:11:57.453Z,940.79
2022-11-24T00:12:08.517Z,940.78
2022-11-24T00:12:20.438Z,940.79
2022-11-24T00:12:31.498Z,940.80
2022-11-24T00:12:43.429Z,940.80
2022-11-24T00:12:54.465Z,940.79
2022-11-24T00:13:05.508Z,940.80
2022-11-24T00:13:17.513Z,940.79
2022-11-24T00:13:28.453Z,940.79
2022-11-24T00:13:39.495Z,940.79
2022-11-24T00:13:51.427Z,940.80
2022-11-24T00:14:02.448Z,940.80
2022-11-24T00:14:13.475Z,940.80
2022-11-24T00:14:25.418Z,940.81
2022-11-24T00:14:36.541Z,940.81
2022-11-24T00:14:48.409Z,940.81
2022-11-24T00:14:59.434Z,940.81
2022-11-24T00:15:10.476Z,940.81
2022-11-24T00:15:22.403Z,940.82
2022-11-24T00:15:33.441Z,940.82
2022-11-24T00:15:44.505Z,940.82
2022-11-24T00:15:56.422Z,940.83
2022-11-24T00:16:07.491Z,940.83
2022-11-24T00:16:19.505Z,940.84
2022-11-24T00:16:30.506Z,940.84
2022-11-24T00:16:42.460Z,940.84
2022-11-24T00:16:53.505Z,940.84
2022-11-24T00:17:04.628Z,940.84
2022-11-24T00:17:16.420Z,940.85
2022-11-24T00:17:27.425Z,940.85
2022-11-24T00:17:38.440Z,940.84
2022-11-24T00:17:49.452Z,940.85
2022-11-24T00:18:00.465Z,940.84
2022-11-24T00:18:11.468Z,940.84
2022-11-24T00:18:22.477Z,940.84
2022-11-24T00:18:33.488Z,940.84
2022-11-24T00:18:44.500Z,940.85
2022-11-24T00:18:56.406Z,940.86
2022-11-24T00:19:07.412Z,940.86
2022-11-24T00:19:19.978Z,940.87
2022-11-24T00:19:30.414Z,940.87
2022-11-24T00:19:41.425Z,940.87
2022-11-24T00:19:52.429Z,940.88
2022-11-24T00:20:04.435Z,940.88
2022-11-24T00:20:15.437Z,940.88
2022-11-24T00:20:27.443Z,940.89
2022-11-24T00:20:38.461Z,940.88
2022-11-24T00:20:49.471Z,940.88
2022-11-24T00:21:00.505Z,940.89
2022-11-24T00:21:11.499Z,940.90
2022-11-24T00:21:23.412Z,940.91
2022-11-24T00:21:34.426Z,940.92
2022-11-24T00:21:45.448Z,940.92
2022-11-24T00:21:57.452Z,940.92
2022-11-24T00:22:08.464Z,940.92
2022-11-24T00:22:19.484Z,940.92
2022-11-24T00:22:31.405Z,940.93
2022-11-24T00:22:43.416Z,940.93
2022-11-24T00:22:54.418Z,940.93
2022-11-24T00:23:05.435Z,940.94
2022-11-24T00:23:16.451Z,940.94
2022-11-24T00:23:27.469Z,940.94
2022-11-24T00:23:38.488Z,940.93
2022-11-24T00:23:49.411Z,940.93
2022-11-24T00:24:00.437Z,940.94
2022-11-24T00:24:11.450Z,940.94
2022-11-24T00:24:22.471Z,940.95
2022-11-24T00:24:33.795Z,940.94
2022-11-24T00:24:44.492Z,940.93
2022-11-24T00:24:56.433Z,940.94
2022-11-24T00:25:07.437Z,940.94
2022-11-24T00:25:18.471Z,940.95
2022-11-24T00:25:29.523Z,940.96
2022-11-24T00:25:41.452Z,940.95
2022-11-24T00:25:52.467Z,940.95
2022-11-24T00:26:03.384Z,940.96
2022-11-24T00:26:14.418Z,940.95
2022-11-24T00:26:25.472Z,940.96
2022-11-24T00:26:36.394Z,940.96
2022-11-24T00:26:47.412Z,940.97
2022-11-24T00:26:58.428Z,940.97
2022-11-24T00:27:09.456Z,940.97
2022-11-24T00:27:20.456Z,940.97
2022-11-24T00:27:31.464Z,940.98
2022-11-24T00:27:42.470Z,940.98
2022-11-24T00:27:54.469Z,940.99
2022-11-24T00:28:05.471Z,940.99
2022-11-24T00:28:16.477Z,940.98
2022-11-24T00:28:27.482Z,940.98
2022-11-24T00:28:38.412Z,940.98
2022-11-24T00:28:49.420Z,940.99
2022-11-24T00:29:00.422Z,940.99
2022-11-24T00:29:11.456Z,940.99
2022-11-24T00:29:22.504Z,940.99
2022-11-24T00:29:34.420Z,940.99
2022-11-24T00:29:45.432Z,940.99
2022-11-24T00:29:56.443Z,940.99
2022-11-24T00:30:07.462Z,941.00
2022-11-24T00:30:18.465Z,940.99
2022-11-24T00:30:29.520Z,941.00
2022-11-24T00:30:40.671Z,941.00
2022-11-24T00:30:52.492Z,941.01
2022-11-24T00:31:03.628Z,941.01
2022-11-24T00:31:17.177Z,941.02
2022-11-24T00:31:25.488Z,941.02
2022-11-24T00:31:36.529Z,941.01
2022-11-24T00:31:48.430Z,941.00
2022-11-24T00:31:59.437Z,941.00
2022-11-24T00:32:10.448Z,941.00
2022-11-24T00:32:21.459Z,941.01
2022-11-24T00:32:32.457Z,941.02
2022-11-24T00:32:43.463Z,941.02
2022-11-24T00:32:54.470Z,941.01
2022-11-24T00:33:06.485Z,941.02
2022-11-24T00:33:17.396Z,941.01
2022-11-24T00:33:28.399Z,941.02
2022-11-24T00:33:39.433Z,941.02
2022-11-24T00:33:50.424Z,941.03
2022-11-24T00:34:01.446Z,941.04
2022-11-24T00:34:13.429Z,941.03
2022-11-24T00:34:24.437Z,941.01
2022-11-24T00:34:35.767Z,941.02
2022-11-24T00:34:47.414Z,941.02
2022-11-24T00:34:58.421Z,941.03
2022-11-24T00:35:09.426Z,941.04
2022-11-24T00:35:21.431Z,941.03
2022-11-24T00:35:32.438Z,941.03
2022-11-24T00:35:43.441Z,941.02
2022-11-24T00:35:54.453Z,941.02
2022-11-24T00:36:06.483Z,941.03
2022-11-24T00:36:17.462Z,941.02
2022-11-24T00:36:29.467Z,941.02
2022-11-24T00:36:41.473Z,941.02
2022-11-24T00:36:52.474Z,941.02
2022-11-24T00:37:03.484Z,941.02
2022-11-24T00:37:14.386Z,941.03
2022-11-24T00:37:25.402Z,941.03
2022-11-24T00:37:36.408Z,941.03
2022-11-24T00:37:47.414Z,941.02
2022-11-24T00:37:58.434Z,941.03
2022-11-24T00:38:09.446Z,941.03
2022-11-24T00:38:20.454Z,941.02
2022-11-24T00:38:31.458Z,941.02
2022-11-24T00:38:43.465Z,941.03
2022-11-24T00:38:54.475Z,941.01
2022-11-24T00:39:06.484Z,941.01
2022-11-24T00:39:18.407Z,941.00
2022-11-24T00:39:29.406Z,941.00
2022-11-24T00:39:40.428Z,941.01
2022-11-24T00:39:51.432Z,941.01
2022-11-24T00:40:02.440Z,941.00
2022-11-24T00:40:13.445Z,941.00
2022-11-24T00:40:24.446Z,941.00
2022-11-24T00:40:35.449Z,941.00
2022-11-24T00:40:46.447Z,941.00
2022-11-24T00:40:58.453Z,940.99
2022-11-24T00:41:09.451Z,940.99
2022-11-24T00:41:21.460Z,941.00
2022-11-24T00:41:32.473Z,940.98
2022-11-24T00:41:43.482Z,940.99
2022-11-24T00:41:55.478Z,940.99
2022-11-24T00:42:07.388Z,940.99
2022-11-24T00:42:18.385Z,941.00
2022-11-24T00:42:29.494Z,941.01
2022-11-24T00:42:41.411Z,941.01
2022-11-24T00:42:52.421Z,941.01
2022-11-24T00:43:03.425Z,941.02
2022-11-24T00:43:14.438Z,941.02
2022-11-24T00:43:26.440Z,941.03
2022-11-24T00:43:37.449Z,941.03
2022-11-24T00:43:48.469Z,941.03
2022-11-24T00:43:59.479Z,941.03
2022-11-24T00:44:11.491Z,941.03
2022-11-24T00:44:22.386Z,941.03
2022-11-24T00:44:33.628Z,941.03
2022-11-24T00:44:44.418Z,941.03
2022-11-24T00:44:55.424Z,941.03
2022-11-24T00:45:13.494Z,941.03
2022-11-24T00:45:19.416Z,941.03
2022-11-24T00:45:29.420Z,941.03
2022-11-24T00:45:40.581Z,941.03
2022-11-24T00:45:51.550Z,941.03
2022-11-24T00:46:03.572Z,941.03
2022-11-24T00:46:14.695Z,941.03
2022-11-24T00:46:25.707Z,941.04
2022-11-24T00:46:37.636Z,941.04
2022-11-24T00:46:48.537Z,941.04
2022-11-24T00:46:59.580Z,941.04
2022-11-24T00:47:11.524Z,941.04
2022-11-24T00:47:22.464Z,941.05
2022-11-24T00:47:34.422Z,941.05
2022-11-24T00:47:46.429Z,941.05
2022-11-24T00:47:57.440Z,941.05
2022-11-24T00:48:08.447Z,941.05
2022-11-24T00:48:19.446Z,941.05
2022-11-24T00:48:30.462Z,941.05
2022-11-24T00:48:41.486Z,941.05
2022-11-24T00:48:52.398Z,941.05
2022-11-24T00:49:03.406Z,941.06
2022-11-24T00:49:14.413Z,941.06
2022-11-24T00:49:25.428Z,941.07
2022-11-24T00:49:36.441Z,941.07
2022-11-24T00:49:47.428Z,941.08
2022-11-24T00:49:58.441Z,941.08
2022-11-24T00:50:09.444Z,941.09
2022-11-24T00:50:21.460Z,941.10
2022-11-24T00:50:32.473Z,941.10
2022-11-24T00:50:43.470Z,941.10
2022-11-24T00:50:54.478Z,941.11
2022-11-24T00:51:05.484Z,941.12
2022-11-24T00:51:16.510Z,941.12
2022-11-24T00:51:28.494Z,941.13
2022-11-24T00:51:40.400Z,941.14
2022-11-24T00:51:51.406Z,941.14
2022-11-24T00:52:03.410Z,941.12
2022-11-24T00:52:14.414Z,941.14
2022-11-24T00:52:25.424Z,941.15
2022-11-24T00:52:36.428Z,941.14
2022-11-24T00:52:47.436Z,941.15
2022-11-24T00:52:59.441Z,941.16
2022-11-24T00:53:10.454Z,941.16
2022-11-24T00:53:21.470Z,941.16
2022-11-24T00:53:32.477Z,941.16
2022-11-24T00:53:43.508Z,941.16
2022-11-24T00:53:55.418Z,941.16
2022-11-24T00:54:06.452Z,941.16
2022-11-24T00:54:18.418Z,941.16
2022-11-24T00:54:29.420Z,941.15
2022-11-24T00:54:40.429Z,941.15
2022-11-24T00:54:51.437Z,941.14
2022-11-24T00:55:03.436Z,941.14
2022-11-24T00:55:14.441Z,941.13
2022-11-24T00:55:25.461Z,941.13
2022-11-24T00:55:36.463Z,941.14
2022-11-24T00:55:48.470Z,941.14
2022-11-24T00:55:59.475Z,941.14
2022-11-24T00:56:10.484Z,941.14
2022-11-24T00:56:22.483Z,941.14
2022-11-24T00:56:34.390Z,941.14
2022-11-24T00:56:45.399Z,941.14
2022-11-24T00:56:56.430Z,941.15
2022-11-24T00:57:07.430Z,941.15
2022-11-24T00:57:18.438Z,941.15
2022-11-24T00:57:29.445Z,941.14
2022-11-24T00:57:40.450Z,941.15
2022-11-24T00:57:51.454Z,941.16
2022-11-24T00:58:02.464Z,941.16
2022-11-24T00:58:13.468Z,941.16
2022-11-24T00:58:25.488Z,941.17
2022-11-24T00:58:36.479Z,941.18
2022-11-24T00:58:47.491Z,941.19
2022-11-24T00:58:59.405Z,941.19
2022-11-24T00:59:10.404Z,941.19
2022-11-24T00:59:21.422Z,941.19
2022-11-24T00:59:32.423Z,941.19
2022-11-24T00:59:44.423Z,941.19
2022-11-24T00:59:56.434Z,941.19
2022-11-24T01:00:07.435Z,941.20
2022-11-24T01:00:19.441Z,941.20
2022-11-24T01:00:30.454Z,941.21
2022-11-24T01:00:41.461Z,941.21
2022-11-24T01:00:52.467Z,941.21
2022-11-24T01:01:03.560Z,941.21
2022-11-24T01:01:15.551Z,941.21
2022-11-24T01:01:26.497Z,941.22
2022-11-24T01:01:37.540Z,941.22
2022-11-24T01:01:49.548Z,941.22
2022-11-24T01:02:01.458Z,941.23
2022-11-24T01:02:12.487Z,941.24
2022-11-24T01:02:23.513Z,941.24
2022-11-24T01:02:35.486Z,941.24
2022-11-24T01:02:47.461Z,941.25
2022-11-24T01:02:58.543Z,941.25
2022-11-24T01:03:10.440Z,941.25
2022-11-24T01:03:21.454Z,941.24
2022-11-24T01:03:32.456Z,941.24
2022-11-24T01:03:43.478Z,941.25
2022-11-24T01:03:54.403Z,941.25
2022-11-24T01:04:05.412Z,941.26
2022-11-24T01:04:16.417Z,941.26
2022-11-24T01:04:27.428Z,941.26
2022-11-24T01:04:38.434Z,941.27
2022-11-24T01:04:49.473Z,941.27
2022-11-24T01:05:00.479Z,941.27
2022-11-24T01:05:11.484Z,941.27
2022-11-24T01:05:23.499Z,941.27
2022-11-24T01:05:34.391Z,941.27
2022-11-24T01:05:45.401Z,941.25
2022-11-24T01:05:56.421Z,941.26
2022-11-24T01:06:07.433Z,941.26
2022-11-24T01:06:18.494Z,941.26
2022-11-24T01:06:29.452Z,941.26
2022-11-24T01:06:40.455Z,941.27
2022-11-24T01:06:51.471Z,941.27
2022-11-24T01:07:03.478Z,941.27
2022-11-24T01:07:15.494Z,941.28
2022-11-24T01:07:26.461Z,941.28
2022-11-24T01:07:37.520Z,941.29
2022-11-24T01:07:48.481Z,941.29
2022-11-24T01:07:59.447Z,941.29
2022-11-24T01:08:10.460Z,941.29
2022-11-24T01:08:22.463Z,941.28
2022-11-24T01:08:33.469Z,941.29
2022-11-24T01:08:44.480Z,941.29
2022-11-24T01:08:55.502Z,941.29
2022-11-24T01:09:07.408Z,941.29
2022-11-24T01:09:19.414Z,941.29
2022-11-24T01:09:30.423Z,941.29
2022-11-24T01:09:41.432Z,941.28
2022-11-24T01:09:52.456Z,941.28
2022-11-24T01:10:03.471Z,941.27
2022-11-24T01:10:14.476Z,941.27
2022-11-24T01:10:25.495Z,941.26
2022-11-24T01:10:37.417Z,941.26
2022-11-24T01:10:48.420Z,941.26
2022-11-24T01:10:59.429Z,941.25
2022-11-24T01:11:10.443Z,941.25
2022-11-24T01:11:21.453Z,941.26
2022-11-24T01:11:32.458Z,941.27
2022-11-24T01:11:43.477Z,941.27
2022-11-24T01:11:54.399Z,941.27
2022-11-24T01:12:05.408Z,941.27
2022-11-24T01:12:16.419Z,941.28
2022-11-24T01:12:27.432Z,941.29
2022-11-24T01:12:38.449Z,941.29
2022-11-24T01:12:49.457Z,941.29
2022-11-24T01:13:00.483Z,941.29
2022-11-24T01:13:12.400Z,941.29
2022-11-24T01:13:23.407Z,941.29
2022-11-24T01:13:34.411Z,941.30
2022-11-24T01:13:45.431Z,941.30
2022-11-24T01:13:56.450Z,941.29
2022-11-24T01:14:07.476Z,941.29
2022-11-24T01:14:18.510Z,941.28
2022-11-24T01:14:30.406Z,941.28
2022-11-24T01:14:41.409Z,941.29
2022-11-24T01:14:53.413Z,941.29
2022-11-24T01:15:04.417Z,941.29
2022-11-24T01:15:15.426Z,941.30
2022-11-24T01:15:26.441Z,941.31
2022-11-24T01:15:37.524Z,941.32
2022-11-24T01:15:49.479Z,941.33
2022-11-24T01:16:00.557Z,941.35
2022-11-24T01:16:12.530Z,941.35
2022-11-24T01:16:23.645Z,941.36
2022-11-24T01:16:35.465Z,941.37
2022-11-24T01:16:46.477Z,941.38
2022-11-24T01:16:58.404Z,941.37
2022-11-24T01:17:09.418Z,941.37
2022-11-24T01:17:20.416Z,941.37
2022-11-24T01:17:31.431Z,941.38
2022-11-24T01:17:42.442Z,941.38
2022-11-24T01:17:53.457Z,941.39
2022-11-24T01:18:04.465Z,941.39
2022-11-24T01:18:15.484Z,941.40
2022-11-24T01:18:26.396Z,941.40
2022-11-24T01:18:37.420Z,941.41
2022-11-24T01:18:48.450Z,941.41
2022-11-24T01:18:59.471Z,941.41
2022-11-24T01:19:10.473Z,941.42
2022-11-24T01:19:21.478Z,941.41
2022-11-24T01:19:32.482Z,941.41
2022-11-24T01:19:44.399Z,941.42
2022-11-24T01:19:55.410Z,941.43
2022-11-24T01:20:06.432Z,941.43
2022-11-24T01:20:17.437Z,941.44
2022-11-24T01:20:28.456Z,941.45
2022-11-24T01:20:39.459Z,941.45
2022-11-24T01:20:50.463Z,941.45
2022-11-24T01:21:07.106Z,941.45
2022-11-24T01:21:15.451Z,941.45
2022-11-24T01:21:26.471Z,941.44
2022-11-24T01:21:37.458Z,941.44
2022-11-24T01:21:48.485Z,941.43
2022-11-24T01:22:00.488Z,941.43
2022-11-24T01:22:12.406Z,941.41
2022-11-24T01:22:23.420Z,941.41
2022-11-24T01:22:34.423Z,941.42
2022-11-24T01:22:45.440Z,941.42
2022-11-24T01:22:56.448Z,941.42
2022-11-24T01:23:07.462Z,941.42
2022-11-24T01:23:18.481Z,941.43
2022-11-24T01:23:29.485Z,941.44
2022-11-24T01:23:41.411Z,941.43
2022-11-24T01:23:52.430Z,941.43
2022-11-24T01:24:03.436Z,941.43
2022-11-24T01:24:14.457Z,941.44
2022-11-24T01:24:25.463Z,941.44
2022-11-24T01:24:36.661Z,941.44
2022-11-24T01:24:48.464Z,941.44
2022-11-24T01:24:59.474Z,941.44
2022-11-24T01:25:10.477Z,941.44
2022-11-24T01:25:21.493Z,941.45
2022-11-24T01:25:33.408Z,941.45
2022-11-24T01:25:44.415Z,941.45
2022-11-24T01:25:55.417Z,941.44
2022-11-24T01:26:06.420Z,941.45
2022-11-24T01:26:17.425Z,941.46
2022-11-24T01:26:28.435Z,941.45
2022-11-24T01:26:39.433Z,941.46
2022-11-24T01:26:50.445Z,941.47
2022-11-24T01:27:01.458Z,941.47
2022-11-24T01:27:12.473Z,941.47
2022-11-24T01:27:23.484Z,941.48
2022-11-24T01:27:34.495Z,941.48
2022-11-24T01:27:46.411Z,941.50
2022-11-24T01:27:57.417Z,941.50
2022-11-24T01:28:08.421Z,941.51
2022-11-24T01:28:19.422Z,941.50
2022-11-24T01:28:30.439Z,941.52
2022-11-24T01:28:46.641Z,941.52
2022-11-24T01:28:54.444Z,941.52
2022-11-24T01:29:04.443Z,941.52
2022-11-24T01:29:16.446Z,941.53
2022-11-24T01:29:28.448Z,941.51
2022-11-24T01:29:39.459Z,941.51
2022-11-24T01:29:50.461Z,941.51
2022-11-24T01:30:01.469Z,941.51
2022-11-24T01:30:13.471Z,941.51
2022-11-24T01:30:24.479Z,941.52
2022-11-24T01:30:35.517Z,941.52
2022-11-24T01:30:47.469Z,941.50
2022-11-24T01:30:58.527Z,941.48
2022-11-24T01:31:09.542Z,941.47
2022-11-24T01:31:21.453Z,941.47
2022-11-24T01:31:32.430Z,941.48
2022-11-24T01:31:43.442Z,941.49
2022-11-24T01:31:55.444Z,941.49
2022-11-24T01:32:06.452Z,941.48
2022-11-24T01:32:17.472Z,941.47
2022-11-24T01:32:29.480Z,941.47
2022-11-24T01:32:40.387Z,941.46
2022-11-24T01:32:51.390Z,941.47
2022-11-24T01:33:03.407Z,941.47
2022-11-24T01:33:14.414Z,941.47
2022-11-24T01:33:26.419Z,941.49
2022-11-24T01:33:37.425Z,941.49
2022-11-24T01:33:48.420Z,941.50
2022-11-24T01:34:00.442Z,941.51
2022-11-24T01:34:11.441Z,941.50
2022-11-24T01:34:22.449Z,941.49
2022-11-24T01:34:33.658Z,941.49
2022-11-24T01:34:44.465Z,941.48
2022-11-24T01:34:56.470Z,941.49
2022-11-24T01:35:07.474Z,941.49
2022-11-24T01:35:18.489Z,941.50
2022-11-24T01:35:30.399Z,941.50
2022-11-24T01:35:41.407Z,941.49
2022-11-24T01:35:52.419Z,941.49
2022-11-24T01:36:03.424Z,941.50
2022-11-24T01:36:15.433Z,941.48
2022-11-24T01:36:26.437Z,941.48
2022-11-24T01:36:37.470Z,941.47
2022-11-24T01:36:48.454Z,941.46
2022-11-24T01:36:59.470Z,941.47
2022-11-24T01:37:10.474Z,941.47
2022-11-24T01:37:21.484Z,941.48
2022-11-24T01:37:32.487Z,941.48
2022-11-24T01:37:44.401Z,941.49
2022-11-24T01:37:55.425Z,941.48
2022-11-24T01:38:06.432Z,941.48
2022-11-24T01:38:17.454Z,941.49
2022-11-24T01:38:28.464Z,941.49
2022-11-24T01:38:39.423Z,941.49
2022-11-24T01:38:50.401Z,941.49
2022-11-24T01:39:01.418Z,941.49
2022-11-24T01:39:12.430Z,941.49
2022-11-24T01:39:23.467Z,941.49
2022-11-24T01:39:34.447Z,941.50
2022-11-24T01:39:45.452Z,941.50
2022-11-24T01:39:56.466Z,941.50
2022-11-24T01:40:07.474Z,941.49
2022-11-24T01:40:19.487Z,941.49
2022-11-24T01:40:31.400Z,941.49
2022-11-24T01:40:43.408Z,941.48
2022-11-24T01:40:55.416Z,941.49
2022-11-24T01:41:06.434Z,941.49
2022-11-24T01:41:18.433Z,941.49
2022-11-24T01:41:29.432Z,941.49
2022-11-24T01:41:41.436Z,941.50
2022-11-24T01:41:53.445Z,941.50
2022-11-24T01:42:05.449Z,941.50
2022-11-24T01:42:16.455Z,941.50
2022-11-24T01:42:27.473Z,941.50
2022-11-24T01:42:39.409Z,941.50
2022-11-24T01:42:51.395Z,941.50
2022-11-24T01:43:02.394Z,941.51
2022-11-24T01:43:14.398Z,941.50
2022-11-24T01:43:25.413Z,941.50
2022-11-24T01:43:36.421Z,941.50
2022-11-24T01:43:47.426Z,941.51
2022-11-24T01:43:58.442Z,941.51
2022-11-24T01:44:09.452Z,941.52
2022-11-24T01:44:20.462Z,941.52
2022-11-24T01:44:31.895Z,941.52
2022-11-24T01:44:43.406Z,941.52
2022-11-24T01:44:54.405Z,941.52
2022-11-24T01:45:05.407Z,941.52
2022-11-24T01:45:16.427Z,941.52
2022-11-24T01:45:27.426Z,941.52
2022-11-24T01:45:38.425Z,941.53
2022-11-24T01:45:50.508Z,941.53
2022-11-24T01:46:01.457Z,941.54
2022-11-24T01:46:13.531Z,941.54
2022-11-24T01:46:25.497Z,941.54
2022-11-24T01:46:36.537Z,941.53
2022-11-24T01:46:47.384Z,941.53
2022-11-24T01:46:58.392Z,941.53
2022-11-24T01:47:09.412Z,941.54
2022-11-24T01:47:20.400Z,941.54
2022-11-24T01:47:32.404Z,941.53
2022-11-24T01:47:43.465Z,941.53
2022-11-24T01:47:54.463Z,941.54
2022-11-24T01:48:06.483Z,941.54
2022-11-24T01:48:21.089Z,941.55
2022-11-24T01:48:31.423Z,941.55
2022-11-24T01:48:41.427Z,941.55
2022-11-24T01:48:52.430Z,941.55
2022-11-24T01:49:03.463Z,941.55
2022-11-24T01:49:15.458Z,941.55
2022-11-24T01:49:26.462Z,941.56
2022-11-24T01:49:38.466Z,941.56
2022-11-24T01:49:50.470Z,941.55
2022-11-24T01:50:01.482Z,941.55
2022-11-24T01:50:12.492Z,941.56
2022-11-24T01:50:24.397Z,941.57
2022-11-24T01:50:35.410Z,941.57
2022-11-24T01:50:46.410Z,941.58
2022-11-24T01:50:58.421Z,941.57
2022-11-24T01:51:09.413Z,941.57
2022-11-24T01:51:21.421Z,941.57
2022-11-24T01:51:33.420Z,941.57
2022-11-24T01:51:44.454Z,941.58
2022-11-24T01:51:56.422Z,941.57
2022-11-24T01:52:07.423Z,941.57
2022-11-24T01:52:19.428Z,941.57
2022-11-24T01:52:30.434Z,941.58
2022-11-24T01:52:41.440Z,941.58
2022-11-24T01:52:53.443Z,941.58
2022-11-24T01:53:05.448Z,941.59
2022-11-24T01:53:16.458Z,941.59
2022-11-24T01:53:27.457Z,941.59
2022-11-24T01:53:38.455Z,941.60
2022-11-24T01:53:49.476Z,941.60
2022-11-24T01:54:00.472Z,941.60
2022-11-24T01:54:12.492Z,941.61
2022-11-24T01:54:24.391Z,941.61
2022-11-24T01:54:35.852Z,941.61
2022-11-24T01:54:46.422Z,941.61
2022-11-24T01:54:57.441Z,941.61
2022-11-24T01:55:08.447Z,941.61
2022-11-24T01:55:20.453Z,941.62
2022-11-24T01:55:32.460Z,941.63
2022-11-24T01:55:44.456Z,941.63
2022-11-24T01:55:56.468Z,941.63
2022-11-24T01:56:07.470Z,941.63
2022-11-24T01:56:18.472Z,941.63
2022-11-24T01:56:29.482Z,941.63
2022-11-24T01:56:41.405Z,941.63
2022-11-24T01:56:52.408Z,941.64
2022-11-24T01:57:03.414Z,941.64
2022-11-24T01:57:15.419Z,941.64
2022-11-24T01:57:26.428Z,941.64
2022-11-24T01:57:37.428Z,941.64
2022-11-24T01:57:48.448Z,941.64
2022-11-24T01:57:59.461Z,941.64
2022-11-24T01:58:10.480Z,941.63
2022-11-24T01:58:21.390Z,941.63
2022-11-24T01:58:32.385Z,941.63
2022-11-24T01:58:43.391Z,941.63
2022-11-24T01:58:54.402Z,941.63
2022-11-24T01:59:06.400Z,941.62
2022-11-24T01:59:17.417Z,941.62
2022-11-24T01:59:28.426Z,941.62
2022-11-24T01:59:39.450Z,941.62
2022-11-24T01:59:51.450Z,941.63
2022-11-24T02:00:02.469Z,941.63
2022-11-24T02:00:14.473Z,941.63
2022-11-24T02:00:26.469Z,941.63
2022-11-24T02:00:37.477Z,941.63
2022-11-24T02:00:48.480Z,941.63
2022-11-24T02:01:00.484Z,941.64
2022-11-24T02:01:11.519Z,941.65
2022-11-24T02:01:23.474Z,941.64
2022-11-24T02:01:34.515Z,941.64
2022-11-24T02:01:46.587Z,941.65
2022-11-24T02:01:57.522Z,941.66
2022-11-24T02:02:08.548Z,941.66
2022-11-24T02:02:20.518Z,941.67
2022-11-24T02:02:31.542Z,941.67
2022-11-24T02:02:42.590Z,941.67
2022-11-24T02:02:54.495Z,941.68
2022-11-24T02:03:05.569Z,941.68
2022-11-24T02:03:17.421Z,941.67
2022-11-24T02:03:28.424Z,941.68
2022-11-24T02:03:40.425Z,941.69
2022-11-24T02:03:52.425Z,941.69
2022-11-24T02:04:04.434Z,941.70
2022-11-24T02:04:15.447Z,941.70
2022-11-24T02:04:26.453Z,941.71
2022-11-24T02:04:37.605Z,941.70
2022-11-24T02:04:49.458Z,941.70
2022-11-24T02:05:01.456Z,941.71
2022-11-24T02:05:13.462Z,941.71
2022-11-24T02:05:24.468Z,941.72
2022-11-24T02:05:35.471Z,941.72
2022-11-24T02:05:46.473Z,941.73
2022-11-24T02:05:58.393Z,941.73
2022-11-24T02:06:09.405Z,941.72
2022-11-24T02:06:20.395Z,941.72
2022-11-24T02:06:31.413Z,941.72
2022-11-24T02:06:42.414Z,941.73
2022-11-24T02:06:53.530Z,941.73
2022-11-24T02:07:04.457Z,941.73
2022-11-24T02:07:15.567Z,941.73
2022-11-24T02:07:27.488Z,941.73
2022-11-24T02:07:39.532Z,941.73
2022-11-24T02:07:50.554Z,941.73
2022-11-24T02:08:02.427Z,941.73
2022-11-24T02:08:14.430Z,941.72
2022-11-24T02:08:25.431Z,941.72
2022-11-24T02:08:36.437Z,941.71
2022-11-24T02:08:47.448Z,941.72
2022-11-24T02:08:59.461Z,941.72
2022-11-24T02:09:10.460Z,941.73
2022-11-24T02:09:21.475Z,941.73
2022-11-24T02:09:32.481Z,941.74
2022-11-24T02:09:44.416Z,941.75
2022-11-24T02:09:55.412Z,941.76
2022-11-24T02:10:07.427Z,941.74
2022-11-24T02:10:18.429Z,941.74
2022-11-24T02:10:29.429Z,941.75
2022-11-24T02:10:41.429Z,941.75
2022-11-24T02:10:53.437Z,941.75
2022-11-24T02:11:04.439Z,941.75
2022-11-24T02:11:15.442Z,941.75
2022-11-24T02:11:26.452Z,941.75
2022-11-24T02:11:37.450Z,941.74
2022-11-24T02:11:49.462Z,941.75
2022-11-24T02:12:00.467Z,941.76
2022-11-24T02:12:12.473Z,941.77
2022-11-24T02:12:24.479Z,941.77
2022-11-24T02:12:36.476Z,941.77
2022-11-24T02:12:47.384Z,941.77
2022-11-24T02:12:58.384Z,941.76
2022-11-24T02:13:09.397Z,941.76
2022-11-24T02:13:21.395Z,941.76
2022-11-24T02:13:32.399Z,941.77
2022-11-24T02:13:44.413Z,941.77
2022-11-24T02:13:56.403Z,941.77
2022-11-24T02:14:07.408Z,941.77
2022-11-24T02:14:18.419Z,941.78
2022-11-24T02:14:29.430Z,941.78
2022-11-24T02:14:40.436Z,941.79
2022-11-24T02:14:52.423Z,941.79
2022-11-24T02:15:04.425Z,941.79
2022-11-24T02:15:15.441Z,941.79
2022-11-24T02:15:26.449Z,941.79
2022-11-24T02:15:37.503Z,941.79
2022-11-24T02:15:48.502Z,941.79
2022-11-24T02:15:59.483Z,941.79
2022-11-24T02:16:10.521Z,941.80
2022-11-24T02:16:22.459Z,941.80
2022-11-24T02:16:33.440Z,941.80
2022-11-24T02:16:44.444Z,941.79
2022-11-24T02:16:56.447Z,941.79
2022-11-24T02:17:08.451Z,941.79
2022-11-24T02:17:19.454Z,941.79
2022-11-24T02:17:30.456Z,941.79
2022-11-24T02:17:41.466Z,941.79
2022-11-24T02:17:53.392Z,941.79
2022-11-24T02:18:05.393Z,941.79
2022-11-24T02:18:16.407Z,941.79
2022-11-24T02:18:27.420Z,941.79
2022-11-24T02:18:39.426Z,941.77
2022-11-24T02:18:50.428Z,941.78
2022-11-24T02:19:01.432Z,941.78
2022-11-24T02:19:12.442Z,941.77
2022-11-24T02:19:23.467Z,941.77
2022-11-24T02:19:34.463Z,941.77
2022-11-24T02:19:45.471Z,941.77
2022-11-24T02:19:56.484Z,941.78
2022-11-24T02:20:08.395Z,941.79
2022-11-24T02:20:19.405Z,941.80
2022-11-24T02:20:30.421Z,941.80
2022-11-24T02:20:41.420Z,941.81